• Join FlightAware (Why Join?)
  • Login
  • US Flag 
02:08AM EDT


 

Airport Tracker/Info


-or-


 

Live Flight TrackerFlight Track Log ✈ AWE3878 ✈ 27-Apr-2013 ✈ KMYR - KDCA

Flight Track Log - Related Links

Times and Time Zones

All times are in EDT time to prevent confusion due to time zone crossing. See the AWE3878 flight status page for this flight to view local times or setup timezone preferences in your user account.

Time Position Orientation Groundspeed Altitude Reporting Facility
EDT Latitude Longitude Course Direction KTS MPH feet Rate Location/Type
11:16AM 33.6969 -78.7961 56° Northeast 264 304 6,600  Level Jacksonville Center
11:17AM 33.8783 -78.5954 50° Northeast  Level FlightAware Approximate
11:18AM 33.9338 -78.5160 51° Northeast  Level FlightAware Approximate
11:18AM 33.7775 -78.6772 51° Northeast 267 307 10,500  Level Washington Center
11:19AM 33.9878 -78.4351 51° Northeast  Level FlightAware Approximate
11:19AM 33.8381 -78.5944 49° Northeast 289 333 11,800  Level Washington Center
11:20AM 34.0406 -78.3449 68° East  Level FlightAware Approximate
11:20AM 33.9028 -78.5042 49° Northeast 330 380 13,700  Level Washington Center
11:21AM 34.1012 -78.2645 56° Northeast  Level FlightAware Approximate
11:21AM 33.9717 -78.4114 48° Northeast 358 412 15,300  Level Washington Center
11:22AM 34.1526 -78.1720 56° Northeast  Level FlightAware Approximate
11:22AM 34.0428 -78.3111 49° Northeast 374 430 17,000  Level Washington Center
11:23AM 34.1181 -78.2158 46° Northeast 385 443 17,900 1,140 Climbing Washington Center
11:24AM 34.2208 -78.1839 14° North 362 417 19,300 1,320 Climbing Washington Center
11:25AM 34.3258 -78.1594 11° North 368 423 20,500 1,140 Climbing Washington Center
11:26AM 34.4308 -78.1300 13° North 378 435 21,600 1,140 Climbing Washington Center
11:27AM 34.5356 -78.1056 11° North 378 435 22,900 900 Climbing Washington Center
11:28AM 34.6447 -78.0761 13° North 378 435 23,500 660 Climbing Washington Center
11:29AM 34.7517 -78.0492 12° North 383 441 24,300 660 Climbing Washington Center
11:30AM 34.8525 -78.0192 14° North 390 449 24,900 780 Climbing Washington Center
11:31AM 34.9614 -77.9947 10° North 395 455 25,900 1,020 Climbing Washington Center
11:32AM 35.0706 -77.9622 14° North 395 455 27,000 1,080 Climbing Washington Center
11:33AM 35.1797 -77.9350 12° North 395 455 28,100 960 Climbing Washington Center
11:34AM 35.2867 -77.9075 12° North 395 455 29,000 420 Climbing Washington Center
11:35AM 35.3997 -77.8803 11° North 395 455 29,000  Level Washington Center
11:36AM 35.5150 -77.8478 13° North 401 461 29,000  Level Washington Center
11:37AM 35.6261 -77.8203 11° North 407 468 29,000  Level Washington Center
11:38AM 35.7417 -77.7903 12° North 412 474 29,000  Level Washington Center
11:39AM 35.8547 -77.7600 12° North 412 474 29,000  Level Washington Center
11:40AM 35.9681 -77.7325 11° North 412 474 29,000 -180 Level Washington Center
11:41AM 36.0811 -77.7019 12° North 412 474 28,700 -660 Descending Washington Center
11:42AM 36.1964 -77.6742 11° North 412 474 27,700 -900 Descending Washington Center
11:43AM 36.3158 -77.6439 12° North 422 486 27,000 -360 Descending Washington Center
11:44AM 36.4439 -77.6058 13° North 422 486 27,000  Level Washington Center
11:45AM 36.5589 -77.5753 12° North 427 491 27,000  Level Washington Center
11:46AM 36.6764 -77.5447 12° North 427 491 27,000  Level Washington Center
11:47AM 36.7894 -77.5136 12° North 421 484 27,000  Level Washington Center
11:48AM 36.9028 -77.4828 12° North 416 479 27,000 -60 Level Washington Center
11:49AM 37.0178 -77.4544 11° North 416 479 26,900 -660 Descending Washington Center
11:50AM 37.1353 -77.4208 13° North 416 479 25,700 -1,200 Descending Washington Center
11:51AM 37.2483 -77.3922 11° North 416 479 24,500 -1,260 Descending Washington Center
11:52AM 37.3656 -77.3583 13° North 416 479 23,300 -1,080 Descending Washington Center
11:53AM 37.4578 -77.3342 12° North 416 479 22,400 -1,080 Descending Washington Center
11:54AM 37.5833 -77.3056 10° North 411 473 21,200 -1,320 Descending Washington Center
11:55AM 37.6900 -77.2819 10° North 406 467 19,800 -1,620 Descending Washington Center
11:56AM 37.7944 -77.2631 North 392 451 18,100 -1,560 Descending Washington Center
11:57AM 37.8969 -77.2417 North 381 438 16,800 -1,500 Descending Washington Center
11:58AM 37.9953 -77.2203 10° North 368 423 15,100 -1,800 Descending Washington Center
11:59AM 38.1019 -77.2014 North 359 413 13,200 -1,860 Descending Washington Center
12:00PM 38.1981 -77.1822 North 354 407 11,500 -1,560 Descending Washington Center
12:01PM 38.2861 -77.1578 12° North 341 392 10,200 -1,080 Descending Washington Center
12:02PM 38.3553 -77.1219 22° Northeast 299 344 9,300 -1,320 Descending Washington Center
12:03PM 38.4247 -77.0706 30° Northeast 289 333 7,700 -1,680 Descending Washington Center
12:04PM 38.4878 -77.0239 30° Northeast 276 318 6,100 -1,380 Descending Washington Center
12:05PM 38.5608 -77.0175 North 246 283 5,000 -840 Descending Washington Center
12:06PM 38.6192 -77.0211 357° North 228 262 4,400 -840 Descending Washington Center
12:07PM 38.6833 -77.0167 North 180 207 3,300 -1,080 Descending Potomac TRACON